sensor_id;sensor_type;location;lat;lon;timestamp;P1;durP1;ratioP1;P2;durP2;ratioP2
30896;SDS011;64229;52.246;21.054;2023-09-30T00:00:21;18.10;;;10.30;;
30896;SDS011;64229;52.246;21.054;2023-09-30T00:02:46;17.58;;;9.63;;
30896;SDS011;64229;52.246;21.054;2023-09-30T00:05:11;17.77;;;9.65;;
30896;SDS011;64229;52.246;21.054;2023-09-30T00:07:37;15.35;;;9.73;;
30896;SDS011;64229;52.246;21.054;2023-09-30T00:10:02;18.23;;;10.18;;
30896;SDS011;64229;52.246;21.054;2023-09-30T00:12:28;19.52;;;9.60;;
30896;SDS011;64229;52.246;21.054;2023-09-30T00:14:53;21.80;;;10.57;;
30896;SDS011;64229;52.246;21.054;2023-09-30T00:17:19;17.58;;;9.80;;
30896;SDS011;64229;52.246;21.054;2023-09-30T00:19:44;16.67;;;9.70;;
30896;SDS011;64229;52.246;21.054;2023-09-30T00:22:09;19.08;;;10.98;;
30896;SDS011;64229;52.246;21.054;2023-09-30T00:24:35;19.45;;;9.82;;
30896;SDS011;64229;52.246;21.054;2023-09-30T00:27:00;19.77;;;9.73;;
30896;SDS011;64229;52.246;21.054;2023-09-30T00:29:25;16.95;;;9.38;;
30896;SDS011;64229;52.246;21.054;2023-09-30T00:31:51;16.13;;;10.13;;
30896;SDS011;64229;52.246;21.054;2023-09-30T00:34:17;16.65;;;9.90;;
30896;SDS011;64229;52.246;21.054;2023-09-30T00:36:42;17.63;;;10.27;;
30896;SDS011;64229;52.246;21.054;2023-09-30T00:39:07;17.25;;;9.93;;
30896;SDS011;64229;52.246;21.054;2023-09-30T00:41:34;17.77;;;9.82;;
30896;SDS011;64229;52.246;21.054;2023-09-30T00:44:00;14.60;;;9.15;;
30896;SDS011;64229;52.246;21.054;2023-09-30T00:48:55;17.60;;;10.35;;
30896;SDS011;64229;52.246;21.054;2023-09-30T00:51:23;17.55;;;10.80;;
30896;SDS011;64229;52.246;21.054;2023-09-30T00:53:52;18.50;;;10.90;;
30896;SDS011;64229;52.246;21.054;2023-09-30T00:56:19;19.25;;;10.73;;
30896;SDS011;64229;52.246;21.054;2023-09-30T00:58:46;17.08;;;10.32;;
30896;SDS011;64229;52.246;21.054;2023-09-30T01:01:13;22.30;;;10.45;;
30896;SDS011;64229;52.246;21.054;2023-09-30T01:03:38;15.55;;;9.85;;
30896;SDS011;64229;52.246;21.054;2023-09-30T01:06:04;18.33;;;9.95;;
30896;SDS011;64229;52.246;21.054;2023-09-30T01:08:30;20.15;;;9.52;;
30896;SDS011;64229;52.246;21.054;2023-09-30T01:10:57;18.85;;;10.85;;
30896;SDS011;64229;52.246;21.054;2023-09-30T01:13:23;17.00;;;9.48;;
30896;SDS011;64229;52.246;21.054;2023-09-30T01:15:56;19.15;;;9.50;;
30896;SDS011;64229;52.246;21.054;2023-09-30T01:18:21;16.48;;;9.43;;
30896;SDS011;64229;52.246;21.054;2023-09-30T01:20:47;17.20;;;8.80;;
30896;SDS011;64229;52.246;21.054;2023-09-30T01:23:13;16.08;;;9.65;;
30896;SDS011;64229;52.246;21.054;2023-09-30T01:25:38;15.17;;;9.23;;
30896;SDS011;64229;52.246;21.054;2023-09-30T01:28:07;18.33;;;9.73;;
30896;SDS011;64229;52.246;21.054;2023-09-30T01:30:32;15.55;;;9.30;;
30896;SDS011;64229;52.246;21.054;2023-09-30T01:32:58;21.45;;;10.65;;
30896;SDS011;64229;52.246;21.054;2023-09-30T01:35:24;22.73;;;10.67;;
30896;SDS011;64229;52.246;21.054;2023-09-30T01:37:49;20.63;;;10.33;;
30896;SDS011;64229;52.246;21.054;2023-09-30T01:40:14;24.17;;;10.38;;
30896;SDS011;64229;52.246;21.054;2023-09-30T01:42:39;21.13;;;10.40;;
30896;SDS011;64229;52.246;21.054;2023-09-30T01:45:05;16.38;;;10.52;;
30896;SDS011;64229;52.246;21.054;2023-09-30T01:47:31;17.23;;;9.82;;
30896;SDS011;64229;52.246;21.054;2023-09-30T01:49:56;20.00;;;9.73;;
30896;SDS011;64229;52.246;21.054;2023-09-30T01:52:21;21.37;;;10.70;;
30896;SDS011;64229;52.246;21.054;2023-09-30T01:54:46;16.27;;;10.20;;
30896;SDS011;64229;52.246;21.054;2023-09-30T01:57:12;15.75;;;9.93;;
30896;SDS011;64229;52.246;21.054;2023-09-30T01:59:38;18.48;;;10.75;;
30896;SDS011;64229;52.246;21.054;2023-09-30T02:02:04;19.80;;;10.90;;
30896;SDS011;64229;52.246;21.054;2023-09-30T02:04:29;16.23;;;9.90;;
30896;SDS011;64229;52.246;21.054;2023-09-30T02:06:55;20.02;;;10.23;;
30896;SDS011;64229;52.246;21.054;2023-09-30T02:09:21;15.98;;;10.45;;
30896;SDS011;64229;52.246;21.054;2023-09-30T02:11:46;20.58;;;10.82;;
30896;SDS011;64229;52.246;21.054;2023-09-30T02:14:11;20.90;;;10.93;;
30896;SDS011;64229;52.246;21.054;2023-09-30T02:16:39;25.53;;;12.23;;
30896;SDS011;64229;52.246;21.054;2023-09-30T02:19:05;20.25;;;11.48;;
30896;SDS011;64229;52.246;21.054;2023-09-30T02:21:31;24.65;;;12.40;;
30896;SDS011;64229;52.246;21.054;2023-09-30T02:23:56;21.80;;;12.07;;
30896;SDS011;64229;52.246;21.054;2023-09-30T02:26:22;17.30;;;11.57;;
30896;SDS011;64229;52.246;21.054;2023-09-30T02:28:50;23.10;;;12.60;;
30896;SDS011;64229;52.246;21.054;2023-09-30T02:31:16;24.20;;;11.68;;
30896;SDS011;64229;52.246;21.054;2023-09-30T02:33:42;20.30;;;11.70;;
30896;SDS011;64229;52.246;21.054;2023-09-30T02:36:09;20.75;;;11.68;;
30896;SDS011;64229;52.246;21.054;2023-09-30T02:38:34;21.80;;;12.30;;
30896;SDS011;64229;52.246;21.054;2023-09-30T02:41:02;21.20;;;12.35;;
30896;SDS011;64229;52.246;21.054;2023-09-30T02:43:27;19.00;;;11.05;;
30896;SDS011;64229;52.246;21.054;2023-09-30T02:45:53;23.35;;;11.65;;
30896;SDS011;64229;52.246;21.054;2023-09-30T02:48:18;20.67;;;11.43;;
30896;SDS011;64229;52.246;21.054;2023-09-30T02:50:43;25.88;;;12.73;;
30896;SDS011;64229;52.246;21.054;2023-09-30T02:53:12;26.15;;;15.07;;
30896;SDS011;64229;52.246;21.054;2023-09-30T02:55:41;32.00;;;16.45;;
30896;SDS011;64229;52.246;21.054;2023-09-30T02:58:09;29.77;;;18.83;;
30896;SDS011;64229;52.246;21.054;2023-09-30T03:00:35;29.75;;;19.55;;
30896;SDS011;64229;52.246;21.054;2023-09-30T03:03:02;30.35;;;18.15;;
30896;SDS011;64229;52.246;21.054;2023-09-30T03:05:28;28.00;;;18.17;;
30896;SDS011;64229;52.246;21.054;2023-09-30T03:07:57;30.38;;;16.95;;
30896;SDS011;64229;52.246;21.054;2023-09-30T03:10:22;32.03;;;17.77;;
30896;SDS011;64229;52.246;21.054;2023-09-30T03:12:52;29.67;;;20.17;;
30896;SDS011;64229;52.246;21.054;2023-09-30T03:15:17;41.03;;;24.67;;
30896;SDS011;64229;52.246;21.054;2023-09-30T03:17:43;35.50;;;21.70;;
30896;SDS011;64229;52.246;21.054;2023-09-30T03:20:09;39.50;;;24.58;;
30896;SDS011;64229;52.246;21.054;2023-09-30T03:22:39;42.10;;;22.45;;
30896;SDS011;64229;52.246;21.054;2023-09-30T03:25:06;36.63;;;21.65;;
30896;SDS011;64229;52.246;21.054;2023-09-30T03:27:32;34.45;;;21.20;;
30896;SDS011;64229;52.246;21.054;2023-09-30T03:29:58;39.95;;;23.10;;
30896;SDS011;64229;52.246;21.054;2023-09-30T03:32:23;34.40;;;21.45;;
30896;SDS011;64229;52.246;21.054;2023-09-30T03:34:49;29.02;;;18.58;;
30896;SDS011;64229;52.246;21.054;2023-09-30T03:37:15;33.57;;;20.00;;
30896;SDS011;64229;52.246;21.054;2023-09-30T03:39:40;34.80;;;19.90;;
30896;SDS011;64229;52.246;21.054;2023-09-30T03:42:06;31.75;;;18.67;;
30896;SDS011;64229;52.246;21.054;2023-09-30T03:44:31;37.22;;;18.48;;
30896;SDS011;64229;52.246;21.054;2023-09-30T03:46:57;33.30;;;20.73;;
30896;SDS011;64229;52.246;21.054;2023-09-30T03:49:24;52.10;;;23.05;;
30896;SDS011;64229;52.246;21.054;2023-09-30T03:51:49;46.42;;;26.23;;
30896;SDS011;64229;52.246;21.054;2023-09-30T03:54:16;35.72;;;22.45;;
30896;SDS011;64229;52.246;21.054;2023-09-30T03:56:42;43.20;;;21.17;;
30896;SDS011;64229;52.246;21.054;2023-09-30T03:59:08;40.15;;;22.58;;
30896;SDS011;64229;52.246;21.054;2023-09-30T04:01:34;35.80;;;21.00;;
30896;SDS011;64229;52.246;21.054;2023-09-30T04:03:59;47.00;;;22.60;;
30896;SDS011;64229;52.246;21.054;2023-09-30T04:06:24;42.70;;;22.63;;
30896;SDS011;64229;52.246;21.054;2023-09-30T04:08:50;39.30;;;21.95;;
30896;SDS011;64229;52.246;21.054;2023-09-30T04:11:15;38.60;;;21.13;;
30896;SDS011;64229;52.246;21.054;2023-09-30T04:13:46;32.17;;;17.33;;
30896;SDS011;64229;52.246;21.054;2023-09-30T04:16:11;29.48;;;17.00;;
30896;SDS011;64229;52.246;21.054;2023-09-30T04:18:36;43.58;;;18.70;;
30896;SDS011;64229;52.246;21.054;2023-09-30T04:21:03;27.73;;;17.10;;
30896;SDS011;64229;52.246;21.054;2023-09-30T04:23:29;28.38;;;15.88;;
30896;SDS011;64229;52.246;21.054;2023-09-30T04:25:54;31.93;;;17.20;;
30896;SDS011;64229;52.246;21.054;2023-09-30T04:28:19;23.73;;;14.47;;
30896;SDS011;64229;52.246;21.054;2023-09-30T04:30:49;25.75;;;16.13;;
30896;SDS011;64229;52.246;21.054;2023-09-30T04:33:15;30.50;;;15.75;;
30896;SDS011;64229;52.246;21.054;2023-09-30T04:35:42;28.50;;;13.88;;
30896;SDS011;64229;52.246;21.054;2023-09-30T04:38:08;23.92;;;13.07;;
30896;SDS011;64229;52.246;21.054;2023-09-30T04:40:34;20.73;;;12.15;;
30896;SDS011;64229;52.246;21.054;2023-09-30T04:42:59;18.30;;;11.40;;
30896;SDS011;64229;52.246;21.054;2023-09-30T04:45:25;20.08;;;11.65;;
30896;SDS011;64229;52.246;21.054;2023-09-30T04:47:51;20.40;;;11.70;;
30896;SDS011;64229;52.246;21.054;2023-09-30T04:50:17;18.98;;;11.25;;
30896;SDS011;64229;52.246;21.054;2023-09-30T04:52:42;23.20;;;11.93;;
30896;SDS011;64229;52.246;21.054;2023-09-30T04:55:09;22.40;;;11.32;;
30896;SDS011;64229;52.246;21.054;2023-09-30T04:57:36;16.95;;;10.75;;
30896;SDS011;64229;52.246;21.054;2023-09-30T05:00:02;22.37;;;11.97;;
30896;SDS011;64229;52.246;21.054;2023-09-30T05:02:36;17.25;;;10.55;;
30896;SDS011;64229;52.246;21.054;2023-09-30T05:05:01;22.50;;;11.00;;
30896;SDS011;64229;52.246;21.054;2023-09-30T05:07:27;23.52;;;11.60;;
30896;SDS011;64229;52.246;21.054;2023-09-30T05:09:53;22.25;;;13.52;;
30896;SDS011;64229;52.246;21.054;2023-09-30T05:12:19;22.65;;;11.95;;
30896;SDS011;64229;52.246;21.054;2023-09-30T05:14:45;19.73;;;11.02;;
30896;SDS011;64229;52.246;21.054;2023-09-30T05:17:10;20.77;;;10.75;;
30896;SDS011;64229;52.246;21.054;2023-09-30T05:19:37;19.17;;;10.75;;
30896;SDS011;64229;52.246;21.054;2023-09-30T05:22:02;20.13;;;10.13;;
30896;SDS011;64229;52.246;21.054;2023-09-30T05:24:28;17.55;;;10.07;;
30896;SDS011;64229;52.246;21.054;2023-09-30T05:26:54;16.48;;;10.38;;
30896;SDS011;64229;52.246;21.054;2023-09-30T05:29:19;18.13;;;10.33;;
30896;SDS011;64229;52.246;21.054;2023-09-30T05:31:45;16.45;;;9.73;;
30896;SDS011;64229;52.246;21.054;2023-09-30T05:34:10;16.23;;;9.85;;
30896;SDS011;64229;52.246;21.054;2023-09-30T05:36:36;18.00;;;10.38;;
30896;SDS011;64229;52.246;21.054;2023-09-30T05:39:01;27.92;;;9.95;;
30896;SDS011;64229;52.246;21.054;2023-09-30T05:41:28;37.47;;;12.27;;
30896;SDS011;64229;52.246;21.054;2023-09-30T05:43:53;20.27;;;11.17;;
30896;SDS011;64229;52.246;21.054;2023-09-30T05:46:18;20.35;;;11.13;;
30896;SDS011;64229;52.246;21.054;2023-09-30T05:48:43;18.13;;;10.60;;
30896;SDS011;64229;52.246;21.054;2023-09-30T05:51:09;19.30;;;11.13;;
30896;SDS011;64229;52.246;21.054;2023-09-30T05:53:34;24.00;;;12.97;;
30896;SDS011;64229;52.246;21.054;2023-09-30T05:56:01;19.38;;;12.00;;
30896;SDS011;64229;52.246;21.054;2023-09-30T05:58:26;19.52;;;12.27;;
30896;SDS011;64229;52.246;21.054;2023-09-30T06:00:52;22.80;;;11.07;;
30896;SDS011;64229;52.246;21.054;2023-09-30T06:03:18;20.40;;;11.25;;
30896;SDS011;64229;52.246;21.054;2023-09-30T06:05:44;20.75;;;11.05;;
30896;SDS011;64229;52.246;21.054;2023-09-30T06:08:09;22.37;;;10.50;;
30896;SDS011;64229;52.246;21.054;2023-09-30T06:10:39;17.80;;;9.90;;
30896;SDS011;64229;52.246;21.054;2023-09-30T06:13:07;16.15;;;8.55;;
30896;SDS011;64229;52.246;21.054;2023-09-30T06:15:33;12.50;;;8.52;;
30896;SDS011;64229;52.246;21.054;2023-09-30T06:18:01;13.70;;;7.00;;
30896;SDS011;64229;52.246;21.054;2023-09-30T06:20:26;14.30;;;7.45;;
30896;SDS011;64229;52.246;21.054;2023-09-30T06:22:52;15.83;;;7.50;;
30896;SDS011;64229;52.246;21.054;2023-09-30T06:25:19;12.18;;;7.00;;
30896;SDS011;64229;52.246;21.054;2023-09-30T06:27:45;11.52;;;6.15;;
30896;SDS011;64229;52.246;21.054;2023-09-30T06:30:12;11.60;;;6.57;;
30896;SDS011;64229;52.246;21.054;2023-09-30T06:32:38;11.88;;;6.43;;
30896;SDS011;64229;52.246;21.054;2023-09-30T06:35:04;11.20;;;7.15;;
30896;SDS011;64229;52.246;21.054;2023-09-30T06:37:31;11.32;;;6.70;;
30896;SDS011;64229;52.246;21.054;2023-09-30T06:39:56;12.35;;;7.18;;
30896;SDS011;64229;52.246;21.054;2023-09-30T06:42:22;11.52;;;7.00;;
30896;SDS011;64229;52.246;21.054;2023-09-30T06:44:47;15.23;;;7.90;;
30896;SDS011;64229;52.246;21.054;2023-09-30T06:47:12;14.02;;;7.32;;
30896;SDS011;64229;52.246;21.054;2023-09-30T06:49:38;12.87;;;7.77;;
30896;SDS011;64229;52.246;21.054;2023-09-30T06:52:04;16.02;;;8.68;;
30896;SDS011;64229;52.246;21.054;2023-09-30T06:54:30;11.40;;;7.55;;
30896;SDS011;64229;52.246;21.054;2023-09-30T06:56:56;14.48;;;7.75;;
30896;SDS011;64229;52.246;21.054;2023-09-30T06:59:21;13.30;;;8.60;;
30896;SDS011;64229;52.246;21.054;2023-09-30T07:01:47;13.63;;;7.63;;
30896;SDS011;64229;52.246;21.054;2023-09-30T07:04:12;14.35;;;8.30;;
30896;SDS011;64229;52.246;21.054;2023-09-30T07:06:37;15.00;;;8.40;;
30896;SDS011;64229;52.246;21.054;2023-09-30T07:09:03;13.82;;;8.40;;
30896;SDS011;64229;52.246;21.054;2023-09-30T07:11:29;15.02;;;8.93;;
30896;SDS011;64229;52.246;21.054;2023-09-30T07:13:58;12.98;;;8.93;;
30896;SDS011;64229;52.246;21.054;2023-09-30T07:16:23;14.60;;;8.57;;
30896;SDS011;64229;52.246;21.054;2023-09-30T07:18:48;17.10;;;9.23;;
30896;SDS011;64229;52.246;21.054;2023-09-30T07:21:15;14.20;;;9.32;;
30896;SDS011;64229;52.246;21.054;2023-09-30T07:23:40;12.77;;;8.43;;
30896;SDS011;64229;52.246;21.054;2023-09-30T07:26:06;14.73;;;8.95;;
30896;SDS011;64229;52.246;21.054;2023-09-30T07:28:32;14.63;;;8.98;;
30896;SDS011;64229;52.246;21.054;2023-09-30T07:30:58;15.88;;;8.93;;
30896;SDS011;64229;52.246;21.054;2023-09-30T07:33:23;14.30;;;8.80;;
30896;SDS011;64229;52.246;21.054;2023-09-30T07:35:48;14.75;;;9.35;;
30896;SDS011;64229;52.246;21.054;2023-09-30T07:38:14;16.30;;;9.13;;
30896;SDS011;64229;52.246;21.054;2023-09-30T07:40:39;15.88;;;10.38;;
30896;SDS011;64229;52.246;21.054;2023-09-30T07:43:05;16.85;;;9.88;;
30896;SDS011;64229;52.246;21.054;2023-09-30T07:45:30;17.13;;;10.23;;
30896;SDS011;64229;52.246;21.054;2023-09-30T07:47:56;14.77;;;10.02;;
30896;SDS011;64229;52.246;21.054;2023-09-30T07:50:23;16.23;;;10.52;;
30896;SDS011;64229;52.246;21.054;2023-09-30T07:52:48;17.77;;;10.57;;
30896;SDS011;64229;52.246;21.054;2023-09-30T07:55:13;19.90;;;11.83;;
30896;SDS011;64229;52.246;21.054;2023-09-30T07:57:40;18.13;;;11.18;;
30896;SDS011;64229;52.246;21.054;2023-09-30T08:00:07;16.80;;;11.13;;
30896;SDS011;64229;52.246;21.054;2023-09-30T08:02:35;22.20;;;11.40;;
30896;SDS011;64229;52.246;21.054;2023-09-30T08:05:01;19.60;;;11.75;;
30896;SDS011;64229;52.246;21.054;2023-09-30T08:07:27;19.10;;;11.57;;
30896;SDS011;64229;52.246;21.054;2023-09-30T08:09:52;25.23;;;11.53;;
30896;SDS011;64229;52.246;21.054;2023-09-30T08:12:17;18.90;;;11.20;;
30896;SDS011;64229;52.246;21.054;2023-09-30T08:14:42;20.97;;;10.67;;
30896;SDS011;64229;52.246;21.054;2023-09-30T08:17:11;16.70;;;11.27;;
30896;SDS011;64229;52.246;21.054;2023-09-30T08:19:36;17.60;;;11.73;;
30896;SDS011;64229;52.246;21.054;2023-09-30T08:22:02;18.95;;;11.90;;
30896;SDS011;64229;52.246;21.054;2023-09-30T08:24:28;21.88;;;11.82;;
30896;SDS011;64229;52.246;21.054;2023-09-30T08:26:54;19.58;;;12.27;;
30896;SDS011;64229;52.246;21.054;2023-09-30T08:29:21;20.98;;;11.85;;
30896;SDS011;64229;52.246;21.054;2023-09-30T08:31:46;22.35;;;12.32;;
30896;SDS011;64229;52.246;21.054;2023-09-30T08:34:12;18.90;;;11.67;;
30896;SDS011;64229;52.246;21.054;2023-09-30T08:36:39;20.10;;;12.10;;
30896;SDS011;64229;52.246;21.054;2023-09-30T08:39:05;19.95;;;12.43;;
30896;SDS011;64229;52.246;21.054;2023-09-30T08:41:32;17.63;;;11.68;;
30896;SDS011;64229;52.246;21.054;2023-09-30T08:43:59;18.63;;;12.60;;
30896;SDS011;64229;52.246;21.054;2023-09-30T08:46:27;17.95;;;11.70;;
30896;SDS011;64229;52.246;21.054;2023-09-30T08:49:00;17.75;;;12.32;;
30896;SDS011;64229;52.246;21.054;2023-09-30T08:51:28;18.38;;;11.43;;
30896;SDS011;64229;52.246;21.054;2023-09-30T08:53:54;20.85;;;11.60;;
30896;SDS011;64229;52.246;21.054;2023-09-30T08:56:22;21.67;;;13.27;;
30896;SDS011;64229;52.246;21.054;2023-09-30T08:58:51;19.35;;;12.75;;
30896;SDS011;64229;52.246;21.054;2023-09-30T09:01:19;20.27;;;12.70;;
30896;SDS011;64229;52.246;21.054;2023-09-30T09:03:44;21.75;;;12.50;;
30896;SDS011;64229;52.246;21.054;2023-09-30T09:06:12;18.77;;;13.40;;
30896;SDS011;64229;52.246;21.054;2023-09-30T09:08:37;21.27;;;12.25;;
30896;SDS011;64229;52.246;21.054;2023-09-30T09:11:03;20.77;;;11.90;;
30896;SDS011;64229;52.246;21.054;2023-09-30T09:13:44;22.20;;;12.70;;
30896;SDS011;64229;52.246;21.054;2023-09-30T09:16:14;23.27;;;12.95;;
30896;SDS011;64229;52.246;21.054;2023-09-30T09:18:39;22.70;;;13.23;;
30896;SDS011;64229;52.246;21.054;2023-09-30T09:21:15;21.90;;;13.85;;
30896;SDS011;64229;52.246;21.054;2023-09-30T09:26:12;22.23;;;12.77;;
30896;SDS011;64229;52.246;21.054;2023-09-30T09:28:49;24.55;;;14.70;;
30896;SDS011;64229;52.246;21.054;2023-09-30T09:31:21;22.52;;;13.85;;
30896;SDS011;64229;52.246;21.054;2023-09-30T09:33:48;21.98;;;14.10;;
30896;SDS011;64229;52.246;21.054;2023-09-30T09:36:14;22.85;;;13.55;;
30896;SDS011;64229;52.246;21.054;2023-09-30T09:38:44;24.23;;;13.30;;
30896;SDS011;64229;52.246;21.054;2023-09-30T09:41:14;27.42;;;13.90;;
30896;SDS011;64229;52.246;21.054;2023-09-30T09:43:41;21.77;;;13.77;;
30896;SDS011;64229;52.246;21.054;2023-09-30T09:46:08;19.92;;;13.23;;
30896;SDS011;64229;52.246;21.054;2023-09-30T09:48:37;23.90;;;14.10;;
30896;SDS011;64229;52.246;21.054;2023-09-30T09:51:03;29.02;;;15.32;;
30896;SDS011;64229;52.246;21.054;2023-09-30T09:53:35;22.40;;;13.52;;
30896;SDS011;64229;52.246;21.054;2023-09-30T09:56:02;23.20;;;14.10;;
30896;SDS011;64229;52.246;21.054;2023-09-30T09:58:30;25.10;;;15.27;;
30896;SDS011;64229;52.246;21.054;2023-09-30T10:00:58;26.38;;;15.50;;
30896;SDS011;64229;52.246;21.054;2023-09-30T10:03:26;24.70;;;14.82;;
30896;SDS011;64229;52.246;21.054;2023-09-30T10:05:51;26.55;;;15.10;;
30896;SDS011;64229;52.246;21.054;2023-09-30T10:08:17;27.00;;;15.52;;
30896;SDS011;64229;52.246;21.054;2023-09-30T10:10:46;25.45;;;15.90;;
30896;SDS011;64229;52.246;21.054;2023-09-30T10:19:14;27.00;;;14.80;;
30896;SDS011;64229;52.246;21.054;2023-09-30T10:24:43;22.35;;;13.70;;
30896;SDS011;64229;52.246;21.054;2023-09-30T10:30:10;20.27;;;12.07;;
30896;SDS011;64229;52.246;21.054;2023-09-30T10:35:18;13.63;;;9.25;;
30896;SDS011;64229;52.246;21.054;2023-09-30T10:40:52;10.68;;;6.30;;
30896;SDS011;64229;52.246;21.054;2023-09-30T10:43:34;12.15;;;6.30;;
30896;SDS011;64229;52.246;21.054;2023-09-30T10:46:01;9.52;;;5.30;;
30896;SDS011;64229;52.246;21.054;2023-09-30T10:50:53;7.63;;;4.30;;
30896;SDS011;64229;52.246;21.054;2023-09-30T10:53:20;8.35;;;4.22;;
30896;SDS011;64229;52.246;21.054;2023-09-30T10:55:46;6.55;;;3.85;;
30896;SDS011;64229;52.246;21.054;2023-09-30T10:58:19;7.68;;;4.20;;
30896;SDS011;64229;52.246;21.054;2023-09-30T11:00:54;6.95;;;3.25;;
30896;SDS011;64229;52.246;21.054;2023-09-30T11:03:20;5.30;;;2.90;;
30896;SDS011;64229;52.246;21.054;2023-09-30T11:05:49;7.20;;;2.90;;
30896;SDS011;64229;52.246;21.054;2023-09-30T11:08:20;8.13;;;2.42;;
30896;SDS011;64229;52.246;21.054;2023-09-30T11:10:48;8.38;;;2.30;;
30896;SDS011;64229;52.246;21.054;2023-09-30T11:13:17;5.07;;;2.20;;
30896;SDS011;64229;52.246;21.054;2023-09-30T11:15:46;6.75;;;2.10;;
30896;SDS011;64229;52.246;21.054;2023-09-30T11:18:15;6.47;;;2.58;;
30896;SDS011;64229;52.246;21.054;2023-09-30T11:20:42;4.95;;;2.10;;
30896;SDS011;64229;52.246;21.054;2023-09-30T11:23:09;4.85;;;2.08;;
30896;SDS011;64229;52.246;21.054;2023-09-30T11:25:35;7.28;;;2.35;;
30896;SDS011;64229;52.246;21.054;2023-09-30T11:28:17;6.07;;;2.35;;
30896;SDS011;64229;52.246;21.054;2023-09-30T11:33:52;6.28;;;2.10;;
30896;SDS011;64229;52.246;21.054;2023-09-30T11:36:19;5.35;;;2.17;;
30896;SDS011;64229;52.246;21.054;2023-09-30T11:38:47;4.65;;;2.28;;
30896;SDS011;64229;52.246;21.054;2023-09-30T11:41:14;5.80;;;2.30;;
30896;SDS011;64229;52.246;21.054;2023-09-30T11:43:39;4.97;;;2.47;;
30896;SDS011;64229;52.246;21.054;2023-09-30T11:48:59;7.60;;;2.58;;
30896;SDS011;64229;52.246;21.054;2023-09-30T11:51:27;7.68;;;2.70;;
30896;SDS011;64229;52.246;21.054;2023-09-30T11:53:53;5.53;;;2.25;;
30896;SDS011;64229;52.246;21.054;2023-09-30T11:56:19;7.55;;;2.58;;
30896;SDS011;64229;52.246;21.054;2023-09-30T11:58:47;8.20;;;3.60;;
30896;SDS011;64229;52.246;21.054;2023-09-30T12:01:13;9.45;;;2.42;;
30896;SDS011;64229;52.246;21.054;2023-09-30T12:03:39;7.55;;;3.13;;
30896;SDS011;64229;52.246;21.054;2023-09-30T12:06:08;8.98;;;2.42;;
30896;SDS011;64229;52.246;21.054;2023-09-30T12:08:38;5.75;;;2.38;;
30896;SDS011;64229;52.246;21.054;2023-09-30T12:11:07;8.75;;;2.33;;
30896;SDS011;64229;52.246;21.054;2023-09-30T12:13:32;10.93;;;2.45;;
30896;SDS011;64229;52.246;21.054;2023-09-30T12:15:57;8.30;;;2.30;;
30896;SDS011;64229;52.246;21.054;2023-09-30T12:18:23;7.27;;;2.53;;
30896;SDS011;64229;52.246;21.054;2023-09-30T12:20:49;10.02;;;3.35;;
30896;SDS011;64229;52.246;21.054;2023-09-30T12:23:17;7.15;;;2.22;;
30896;SDS011;64229;52.246;21.054;2023-09-30T12:25:43;6.82;;;2.72;;
30896;SDS011;64229;52.246;21.054;2023-09-30T12:28:08;8.90;;;2.22;;
30896;SDS011;64229;52.246;21.054;2023-09-30T12:30:34;6.73;;;2.30;;
30896;SDS011;64229;52.246;21.054;2023-09-30T12:32:59;8.57;;;3.28;;
30896;SDS011;64229;52.246;21.054;2023-09-30T12:35:24;5.13;;;2.87;;
30896;SDS011;64229;52.246;21.054;2023-09-30T12:37:50;8.73;;;3.05;;
30896;SDS011;64229;52.246;21.054;2023-09-30T12:40:15;7.53;;;3.33;;
30896;SDS011;64229;52.246;21.054;2023-09-30T12:42:42;8.77;;;2.95;;
30896;SDS011;64229;52.246;21.054;2023-09-30T12:45:08;8.95;;;3.47;;
30896;SDS011;64229;52.246;21.054;2023-09-30T12:47:33;8.75;;;2.92;;
30896;SDS011;64229;52.246;21.054;2023-09-30T12:49:59;11.55;;;3.08;;
30896;SDS011;64229;52.246;21.054;2023-09-30T12:52:24;7.47;;;3.23;;
30896;SDS011;64229;52.246;21.054;2023-09-30T12:54:50;10.63;;;2.72;;
30896;SDS011;64229;52.246;21.054;2023-09-30T12:57:15;9.07;;;2.87;;
30896;SDS011;64229;52.246;21.054;2023-09-30T12:59:43;10.20;;;2.78;;
30896;SDS011;64229;52.246;21.054;2023-09-30T13:02:11;5.32;;;2.10;;
30896;SDS011;64229;52.246;21.054;2023-09-30T13:04:37;8.63;;;2.65;;
30896;SDS011;64229;52.246;21.054;2023-09-30T13:07:07;5.53;;;2.08;;
30896;SDS011;64229;52.246;21.054;2023-09-30T13:09:33;11.93;;;2.45;;
30896;SDS011;64229;52.246;21.054;2023-09-30T13:11:58;10.23;;;2.92;;
30896;SDS011;64229;52.246;21.054;2023-09-30T13:14:25;8.35;;;2.50;;
30896;SDS011;64229;52.246;21.054;2023-09-30T13:16:53;5.85;;;2.08;;
30896;SDS011;64229;52.246;21.054;2023-09-30T13:19:18;7.55;;;2.90;;
30896;SDS011;64229;52.246;21.054;2023-09-30T13:21:46;8.45;;;2.30;;
30896;SDS011;64229;52.246;21.054;2023-09-30T13:24:11;6.40;;;2.45;;
30896;SDS011;64229;52.246;21.054;2023-09-30T13:26:37;6.78;;;1.95;;
30896;SDS011;64229;52.246;21.054;2023-09-30T13:29:02;7.75;;;2.35;;
30896;SDS011;64229;52.246;21.054;2023-09-30T13:31:30;6.32;;;2.05;;
30896;SDS011;64229;52.246;21.054;2023-09-30T13:33:55;9.07;;;3.63;;
30896;SDS011;64229;52.246;21.054;2023-09-30T13:36:20;9.00;;;3.03;;
30896;SDS011;64229;52.246;21.054;2023-09-30T13:38:45;10.10;;;2.87;;
30896;SDS011;64229;52.246;21.054;2023-09-30T13:41:11;8.25;;;2.15;;
30896;SDS011;64229;52.246;21.054;2023-09-30T13:43:36;8.40;;;2.20;;
30896;SDS011;64229;52.246;21.054;2023-09-30T13:46:05;11.57;;;2.40;;
30896;SDS011;64229;52.246;21.054;2023-09-30T13:48:33;9.60;;;2.30;;
30896;SDS011;64229;52.246;21.054;2023-09-30T13:51:05;8.07;;;2.50;;
30896;SDS011;64229;52.246;21.054;2023-09-30T13:53:31;6.40;;;1.83;;
30896;SDS011;64229;52.246;21.054;2023-09-30T13:55:57;8.50;;;2.65;;
30896;SDS011;64229;52.246;21.054;2023-09-30T13:58:22;9.40;;;2.25;;
30896;SDS011;64229;52.246;21.054;2023-09-30T14:00:47;8.53;;;2.47;;
30896;SDS011;64229;52.246;21.054;2023-09-30T14:03:13;9.95;;;2.10;;
30896;SDS011;64229;52.246;21.054;2023-09-30T14:05:38;7.53;;;2.13;;
30896;SDS011;64229;52.246;21.054;2023-09-30T14:08:04;8.00;;;1.88;;
30896;SDS011;64229;52.246;21.054;2023-09-30T14:10:32;9.93;;;2.30;;
30896;SDS011;64229;52.246;21.054;2023-09-30T14:12:58;7.15;;;2.08;;
30896;SDS011;64229;52.246;21.054;2023-09-30T14:15:23;7.72;;;1.98;;
30896;SDS011;64229;52.246;21.054;2023-09-30T14:17:48;6.88;;;2.10;;
30896;SDS011;64229;52.246;21.054;2023-09-30T14:20:14;8.50;;;2.07;;
30896;SDS011;64229;52.246;21.054;2023-09-30T14:22:39;7.85;;;1.90;;
30896;SDS011;64229;52.246;21.054;2023-09-30T14:25:05;6.47;;;1.90;;
30896;SDS011;64229;52.246;21.054;2023-09-30T14:27:30;7.43;;;1.58;;
30896;SDS011;64229;52.246;21.054;2023-09-30T14:29:56;7.53;;;2.17;;
30896;SDS011;64229;52.246;21.054;2023-09-30T14:32:21;8.87;;;2.07;;
30896;SDS011;64229;52.246;21.054;2023-09-30T14:34:48;4.85;;;1.85;;
30896;SDS011;64229;52.246;21.054;2023-09-30T14:37:13;5.32;;;1.92;;
30896;SDS011;64229;52.246;21.054;2023-09-30T14:39:38;8.85;;;2.17;;
30896;SDS011;64229;52.246;21.054;2023-09-30T14:42:04;8.13;;;1.93;;
30896;SDS011;64229;52.246;21.054;2023-09-30T14:44:29;10.10;;;2.00;;